Weather Data

Pearl Creek Farm: 8878 N Farm Road 75, Walnut Grove MO 65770

<== Previous Day (Tuesday 31 Jul 2018) | Next Day (Thursday 02 Aug 2018) ==>

Summary Precipitation Data For Wednesday 01 August 2018

ElementValueUnits
Precipitation0"
Notes(none)
SourcePearl Creek Farm

Summary Temperature Data For Wednesday 01 August 2018

ElementValueUnits
High Temperature91 oF
Low Temperature59 oF
Average Temperature75 oF
High Humidity86 %
Low Humidity28 %
Average Humidity55 %
SourceSpringfield-Branson National Airport (SGF)

Detail Temperature Data For Wednesday 01 August 2018

Date / TimeTemp (F)RH (%)Dew Pt (F)Report Date / TimeSource
2018-08-01 00:52:00 61 84 56.0 2019-02-02 11:24:24.260017 Springfield-Branson National Airport (SGF)
2018-08-01 01:52:00 60 84 55.0 2019-02-02 11:24:24.260017 Springfield-Branson National Airport (SGF)
2018-08-01 02:52:00 60 84 55.0 2019-02-02 11:24:24.260017 Springfield-Branson National Airport (SGF)
2018-08-01 03:52:00 59 83 54.0 2019-02-02 11:24:24.260017 Springfield-Branson National Airport (SGF)
2018-08-01 04:52:00 60 84 55.0 2019-02-02 11:24:24.260017 Springfield-Branson National Airport (SGF)
2018-08-01 05:52:00 60 86 56.0 2019-02-02 11:24:24.260017 Springfield-Branson National Airport (SGF)
2018-08-01 06:52:00 67 79 60.0 2019-02-02 11:24:24.260017 Springfield-Branson National Airport (SGF)
2018-08-01 07:52:00 73 64 60.0 2019-02-02 11:24:24.260017 Springfield-Branson National Airport (SGF)
2018-08-01 08:52:00 78 54 60.0 2019-02-02 11:24:24.260017 Springfield-Branson National Airport (SGF)
2018-08-01 09:52:00 82 42 57.0 2019-02-02 11:24:24.260017 Springfield-Branson National Airport (SGF)
2018-08-01 10:52:00 84 38 56.0 2019-02-02 11:24:24.260017 Springfield-Branson National Airport (SGF)
2018-08-01 11:52:00 87 34 55.0 2019-02-02 11:24:24.260017 Springfield-Branson National Airport (SGF)
2018-08-01 12:52:00 87 35 56.0 2019-02-02 11:24:24.260017 Springfield-Branson National Airport (SGF)
2018-08-01 13:52:00 86 33 54.0 2019-02-02 11:24:24.260017 Springfield-Branson National Airport (SGF)
2018-08-01 14:52:00 91 28 54.0 2019-02-02 11:24:24.260017 Springfield-Branson National Airport (SGF)
2018-08-01 15:52:00 88 31 54.0 2019-02-02 11:24:24.260017 Springfield-Branson National Airport (SGF)
2018-08-01 16:52:00 88 31 54.0 2019-02-02 11:24:24.260017 Springfield-Branson National Airport (SGF)
2018-08-01 17:52:00 87 32 54.0 2019-02-02 11:24:24.260017 Springfield-Branson National Airport (SGF)
2018-08-01 18:52:00 83 40 56.0 2019-02-02 11:24:24.260017 Springfield-Branson National Airport (SGF)
2018-08-01 19:52:00 79 44 55.0 2019-02-02 11:24:24.260017 Springfield-Branson National Airport (SGF)
2018-08-01 20:52:00 78 43 54.0 2019-02-02 11:24:24.260017 Springfield-Branson National Airport (SGF)
2018-08-01 21:52:00 70 61 56.0 2019-02-02 11:24:24.260017 Springfield-Branson National Airport (SGF)
2018-08-01 22:52:00 69 63 56.0 2019-02-02 11:24:24.260017 Springfield-Branson National Airport (SGF)
2018-08-01 23:52:00 65 73 56.0 2019-02-02 11:24:24.260017 Springfield-Branson National Airport (SGF)

A total of 24 rows are displayed.